createdAt,value
2018-04-10T00:00:54.979Z,0.00
2018-04-10T00:01:55.116Z,0.00
2018-04-10T00:02:55.253Z,0.00
2018-04-10T00:03:55.391Z,0.00
2018-04-10T00:04:55.538Z,0.00
2018-04-10T00:05:55.667Z,0.00
2018-04-10T00:06:55.817Z,0.00
2018-04-10T00:07:56.089Z,0.00
2018-04-10T00:08:56.106Z,0.00
2018-04-10T00:09:56.243Z,0.00
2018-04-10T00:10:56.397Z,0.00
2018-04-10T00:11:56.531Z,0.00
2018-04-10T00:12:56.661Z,0.00
2018-04-10T00:13:56.818Z,0.00
2018-04-10T00:14:56.981Z,0.00
2018-04-10T00:15:57.129Z,0.00
2018-04-10T00:16:57.276Z,0.00
2018-04-10T00:17:57.417Z,0.00
2018-04-10T00:18:57.552Z,0.00
2018-04-10T00:19:57.701Z,0.00
2018-04-10T00:20:57.843Z,0.00
2018-04-10T00:21:57.979Z,0.00
2018-04-10T00:22:58.115Z,0.00
2018-04-10T00:23:58.262Z,0.00
2018-04-10T00:24:58.397Z,0.00
2018-04-10T00:25:58.538Z,0.00
2018-04-10T00:26:58.672Z,0.00
2018-04-10T00:27:58.811Z,0.00
2018-04-10T00:28:58.962Z,0.00
2018-04-10T00:29:59.094Z,0.00
2018-04-10T00:30:59.232Z,0.00
2018-04-10T00:31:59.378Z,0.00
2018-04-10T00:32:59.515Z,0.00
2018-04-10T00:33:59.654Z,0.00
2018-04-10T00:34:59.787Z,0.00
2018-04-10T00:35:59.937Z,0.00
2018-04-10T00:37:00.072Z,0.00
2018-04-10T00:38:00.211Z,0.00
2018-04-10T00:39:00.353Z,0.00
2018-04-10T00:40:00.492Z,0.00
2018-04-10T00:41:00.627Z,0.00
2018-04-10T00:42:00.767Z,0.00
2018-04-10T00:43:00.902Z,0.00
2018-04-10T00:44:01.046Z,0.00
2018-04-10T00:45:01.178Z,0.00
2018-04-10T00:46:01.313Z,0.00
2018-04-10T00:47:01.454Z,0.00
2018-04-10T00:48:01.590Z,0.00
2018-04-10T00:49:01.734Z,0.00
2018-04-10T00:50:01.864Z,0.00
2018-04-10T00:51:02.005Z,0.00
2018-04-10T00:52:02.144Z,0.00
2018-04-10T00:53:02.283Z,0.00
2018-04-10T00:54:02.443Z,0.00
2018-04-10T00:55:02.573Z,0.00
2018-04-10T00:56:02.714Z,0.00
2018-04-10T00:57:02.854Z,0.00
2018-04-10T00:58:03.018Z,0.00
2018-04-10T00:59:03.156Z,0.00
2018-04-10T01:00:03.291Z,0.00
2018-04-10T01:01:03.435Z,0.00
2018-04-10T01:02:03.586Z,0.00
2018-04-10T01:03:03.730Z,0.00
2018-04-10T01:04:03.868Z,0.00
2018-04-10T01:05:04.008Z,0.00
2018-04-10T01:06:04.189Z,0.00
2018-04-10T01:07:04.298Z,0.00
2018-04-10T01:08:04.445Z,0.00
2018-04-10T01:09:04.593Z,0.00
2018-04-10T01:10:04.727Z,0.00
2018-04-10T01:11:04.868Z,0.00
2018-04-10T01:12:05.004Z,0.00
2018-04-10T01:13:05.907Z,0.00
2018-04-10T01:14:05.323Z,0.00
2018-04-10T01:15:05.474Z,0.00
2018-04-10T01:16:05.616Z,0.00
2018-04-10T01:17:05.752Z,0.00
2018-04-10T01:18:05.914Z,0.00
2018-04-10T01:19:06.045Z,0.00
2018-04-10T01:20:06.186Z,0.00
2018-04-10T01:21:06.328Z,0.00
2018-04-10T01:22:06.478Z,0.00
2018-04-10T01:23:06.614Z,0.00
2018-04-10T01:24:06.759Z,0.00
2018-04-10T01:25:06.949Z,0.00
2018-04-10T01:26:07.044Z,0.00
2018-04-10T01:27:07.188Z,0.00
2018-04-10T01:28:07.361Z,0.00
2018-04-10T01:29:07.517Z,0.00
2018-04-10T01:30:07.650Z,0.00
2018-04-10T01:31:07.782Z,0.00
2018-04-10T01:32:07.923Z,0.00
2018-04-10T01:33:08.067Z,0.00
2018-04-10T01:34:08.200Z,0.00
2018-04-10T01:35:08.337Z,0.00
2018-04-10T01:36:08.476Z,0.00
2018-04-10T01:37:08.617Z,0.00
2018-04-10T01:38:08.754Z,0.00
2018-04-10T01:39:08.888Z,0.00
2018-04-10T01:40:09.031Z,0.00
2018-04-10T01:41:09.169Z,0.00
2018-04-10T01:42:09.310Z,0.00
2018-04-10T01:43:09.449Z,0.00
2018-04-10T01:44:09.587Z,0.00
2018-04-10T01:45:09.732Z,0.00
2018-04-10T01:46:09.871Z,0.00
2018-04-10T01:47:10.011Z,0.00
2018-04-10T01:48:10.148Z,0.00
2018-04-10T01:49:10.294Z,0.00
2018-04-10T01:50:10.430Z,0.00
2018-04-10T01:51:10.570Z,0.00
2018-04-10T01:52:10.717Z,0.00
2018-04-10T01:53:10.855Z,0.00
2018-04-10T01:54:10.992Z,0.00
2018-04-10T01:55:11.132Z,0.00
2018-04-10T01:56:11.271Z,0.00
2018-04-10T01:57:11.411Z,0.00
2018-04-10T01:58:11.546Z,0.00
2018-04-10T01:59:11.688Z,0.00
2018-04-10T02:00:11.824Z,0.00
2018-04-10T02:01:11.956Z,0.00
2018-04-10T02:02:12.095Z,0.00
2018-04-10T02:03:12.239Z,0.00
2018-04-10T02:04:12.376Z,0.00
2018-04-10T02:05:12.516Z,0.00
2018-04-10T02:06:12.655Z,0.00
2018-04-10T02:07:12.795Z,0.00
2018-04-10T02:08:12.964Z,0.00
2018-04-10T02:09:13.093Z,0.00
2018-04-10T02:10:13.239Z,0.00
2018-04-10T02:11:13.392Z,0.00
2018-04-10T02:12:13.541Z,0.00
2018-04-10T02:13:13.688Z,0.00
2018-04-10T02:14:13.847Z,0.00
2018-04-10T02:15:13.986Z,0.00
2018-04-10T02:16:14.135Z,0.00
2018-04-10T02:17:14.280Z,0.00
2018-04-10T02:18:14.448Z,0.00
2018-04-10T02:19:14.592Z,0.00
2018-04-10T02:20:14.744Z,0.00
2018-04-10T02:21:14.901Z,0.00
2018-04-10T02:22:15.055Z,0.00
2018-04-10T02:23:15.201Z,0.00
2018-04-10T02:24:15.332Z,0.00
2018-04-10T02:25:15.504Z,0.00
2018-04-10T02:26:15.650Z,0.00
2018-04-10T02:27:15.801Z,0.00
2018-04-10T02:28:15.943Z,0.00
2018-04-10T02:29:16.108Z,0.00
2018-04-10T02:30:16.251Z,0.00
2018-04-10T02:31:16.399Z,0.00
2018-04-10T02:32:16.543Z,0.00
2018-04-10T02:33:16.703Z,0.00
2018-04-10T02:34:16.845Z,0.00
2018-04-10T02:35:16.993Z,0.00
2018-04-10T02:36:17.190Z,0.00
2018-04-10T02:37:17.314Z,0.00
2018-04-10T02:38:17.466Z,0.00
2018-04-10T02:39:17.606Z,0.00
2018-04-10T02:40:17.760Z,0.00
2018-04-10T02:41:17.905Z,0.00
2018-04-10T02:42:18.053Z,0.00
2018-04-10T02:43:18.233Z,0.00
2018-04-10T02:44:18.378Z,0.00
2018-04-10T02:45:18.522Z,0.00
2018-04-10T02:46:18.677Z,0.00
2018-04-10T02:47:18.826Z,0.00
2018-04-10T02:48:18.969Z,0.00
2018-04-10T02:49:19.133Z,0.00
2018-04-10T02:50:19.281Z,0.00
2018-04-10T02:51:19.425Z,0.00
2018-04-10T02:52:19.568Z,0.00
2018-04-10T02:53:19.732Z,0.00
2018-04-10T02:54:19.862Z,0.00
2018-04-10T02:55:20.008Z,0.00
2018-04-10T02:56:20.160Z,0.00
2018-04-10T02:57:20.301Z,0.00
2018-04-10T02:58:20.444Z,0.00
2018-04-10T02:59:20.593Z,0.00
2018-04-10T03:00:20.742Z,0.00
2018-04-10T03:01:20.890Z,0.00
2018-04-10T03:02:21.037Z,0.00
2018-04-10T03:03:21.187Z,0.00
2018-04-10T03:04:21.328Z,0.00
2018-04-10T03:05:21.459Z,0.00
2018-04-10T03:06:21.612Z,0.00
2018-04-10T03:07:21.758Z,0.00
2018-04-10T03:08:21.908Z,0.00
2018-04-10T03:09:22.054Z,0.00
2018-04-10T03:10:22.190Z,0.00
2018-04-10T03:11:22.337Z,0.00
2018-04-10T03:12:22.483Z,0.00
2018-04-10T03:13:22.627Z,0.00
2018-04-10T03:14:22.776Z,0.00
2018-04-10T03:15:22.922Z,0.00
2018-04-10T03:16:23.068Z,0.00
2018-04-10T03:17:23.215Z,0.00
2018-04-10T03:18:23.363Z,0.00
2018-04-10T03:19:23.510Z,0.00
2018-04-10T03:20:23.661Z,0.00
2018-04-10T03:21:23.802Z,0.00
2018-04-10T03:22:23.945Z,0.00
2018-04-10T03:23:24.099Z,0.00
2018-04-10T03:24:24.237Z,0.00
2018-04-10T03:25:24.384Z,0.00
2018-04-10T03:26:24.533Z,0.00
2018-04-10T03:27:24.684Z,0.00
2018-04-10T03:28:24.821Z,0.00
2018-04-10T03:29:24.973Z,0.00
2018-04-10T03:30:25.119Z,0.00
2018-04-10T03:31:25.261Z,0.00
2018-04-10T03:32:25.406Z,0.00
2018-04-10T03:33:25.557Z,0.00
2018-04-10T03:34:25.735Z,0.00
2018-04-10T03:35:25.878Z,0.00
2018-04-10T03:36:26.028Z,0.00
2018-04-10T03:37:26.207Z,0.00
2018-04-10T03:38:26.345Z,0.00
2018-04-10T03:39:26.489Z,0.00
2018-04-10T03:40:26.662Z,0.00
2018-04-10T03:41:26.803Z,0.00
2018-04-10T03:42:26.949Z,0.00
2018-04-10T03:43:27.112Z,0.00
2018-04-10T03:44:27.252Z,0.00
2018-04-10T03:45:27.397Z,0.00
2018-04-10T03:46:27.543Z,0.00
2018-04-10T03:47:27.685Z,0.00
2018-04-10T03:48:27.833Z,0.00
2018-04-10T03:49:27.979Z,0.00
2018-04-10T03:50:28.125Z,0.00
2018-04-10T03:51:28.278Z,0.00
2018-04-10T03:52:28.412Z,0.00
2018-04-10T03:53:28.547Z,0.00
2018-04-10T03:54:28.689Z,0.00
2018-04-10T03:55:28.891Z,0.00
2018-04-10T03:56:28.982Z,0.00
2018-04-10T03:57:29.121Z,0.00
2018-04-10T03:58:29.260Z,0.00
2018-04-10T03:59:29.469Z,0.00
2018-04-10T04:00:29.521Z,0.00
2018-04-10T04:01:29.663Z,0.00
2018-04-10T04:02:29.804Z,0.00
2018-04-10T04:03:29.941Z,0.00
2018-04-10T04:04:30.091Z,0.00
2018-04-10T04:05:30.230Z,0.00
2018-04-10T04:06:30.371Z,0.00
2018-04-10T04:07:30.505Z,0.00
2018-04-10T04:08:30.645Z,0.00
2018-04-10T04:09:30.789Z,0.00
2018-04-10T04:10:30.925Z,0.00
2018-04-10T04:11:31.057Z,0.00
2018-04-10T04:12:31.198Z,0.00
2018-04-10T04:13:31.338Z,0.00
2018-04-10T04:14:31.476Z,0.00
2018-04-10T04:15:31.649Z,0.00
2018-04-10T04:16:31.798Z,0.00
2018-04-10T04:17:31.938Z,0.00
2018-04-10T04:18:32.080Z,0.00
2018-04-10T04:19:32.212Z,0.00
2018-04-10T04:20:32.349Z,0.00
2018-04-10T04:21:32.488Z,0.00
2018-04-10T04:22:32.630Z,0.00
2018-04-10T04:23:32.775Z,0.00
2018-04-10T04:24:32.953Z,0.00
2018-04-10T04:25:33.088Z,0.00
2018-04-10T04:26:33.225Z,0.00
2018-04-10T04:27:33.416Z,0.00
2018-04-10T04:28:33.550Z,0.00
2018-04-10T04:29:33.688Z,0.00
2018-04-10T04:30:33.827Z,0.00
2018-04-10T04:31:33.978Z,0.00
2018-04-10T04:32:34.114Z,0.00
2018-04-10T04:33:34.249Z,0.00
2018-04-10T04:34:34.394Z,0.00
2018-04-10T04:35:34.540Z,0.00
2018-04-10T04:36:34.674Z,0.00
2018-04-10T04:37:34.814Z,0.00
2018-04-10T04:38:34.947Z,5.63
2018-04-10T04:39:35.090Z,5.63
2018-04-10T04:40:35.224Z,5.63
2018-04-10T04:41:35.363Z,5.63
2018-04-10T04:42:35.505Z,5.63
2018-04-10T04:43:35.649Z,5.63
2018-04-10T04:44:35.786Z,5.63
2018-04-10T04:45:35.975Z,11.25
2018-04-10T04:46:36.085Z,11.25
2018-04-10T04:47:36.229Z,11.25
2018-04-10T04:48:36.365Z,11.25
2018-04-10T04:49:36.518Z,11.25
2018-04-10T04:50:36.652Z,16.88
2018-04-10T04:51:36.785Z,16.88
2018-04-10T04:52:36.952Z,16.88
2018-04-10T04:53:37.066Z,16.88
2018-04-10T04:54:37.191Z,16.88
2018-04-10T04:55:37.352Z,22.50
2018-04-10T04:56:37.483Z,22.50
2018-04-10T04:57:37.619Z,22.50
2018-04-10T04:58:37.759Z,22.50
2018-04-10T04:59:37.961Z,28.13
2018-04-10T05:00:38.052Z,28.13
2018-04-10T05:01:38.188Z,28.13
2018-04-10T05:02:38.334Z,28.13
2018-04-10T05:03:38.486Z,33.75
2018-04-10T05:04:38.619Z,33.75
2018-04-10T05:05:38.756Z,33.75
2018-04-10T05:06:38.893Z,39.38
2018-04-10T05:07:39.052Z,39.38
2018-04-10T05:08:39.187Z,39.38
2018-04-10T05:09:39.326Z,45.00
2018-04-10T05:10:39.466Z,45.00
2018-04-10T05:11:39.610Z,45.00
2018-04-10T05:12:39.746Z,50.63
2018-04-10T05:13:39.880Z,50.63
2018-04-10T05:14:40.015Z,50.63
2018-04-10T05:15:40.176Z,56.25
2018-04-10T05:16:40.313Z,56.25
2018-04-10T05:17:40.449Z,56.25
2018-04-10T05:18:40.593Z,61.88
2018-04-10T05:19:40.731Z,61.88
2018-04-10T05:20:40.881Z,67.50
2018-04-10T05:21:41.022Z,67.50
2018-04-10T05:22:41.154Z,67.50
2018-04-10T05:23:41.343Z,73.13
2018-04-10T05:24:41.373Z,73.13
2018-04-10T05:25:41.514Z,73.13
2018-04-10T05:26:41.653Z,73.13
2018-04-10T05:27:41.792Z,78.75
2018-04-10T05:28:41.934Z,78.75
2018-04-10T05:29:42.070Z,78.75
2018-04-10T05:30:42.213Z,78.75
2018-04-10T05:31:42.363Z,78.75
2018-04-10T05:32:42.498Z,84.38
2018-04-10T05:33:42.639Z,84.38
2018-04-10T05:34:42.782Z,84.38
2018-04-10T05:35:42.936Z,84.38
2018-04-10T05:36:43.061Z,84.38
2018-04-10T05:37:43.197Z,84.38
2018-04-10T05:38:43.333Z,84.38
2018-04-10T05:39:43.472Z,90.00
2018-04-10T05:40:43.612Z,90.00
2018-04-10T05:41:43.753Z,90.00
2018-04-10T05:42:43.896Z,95.63
2018-04-10T05:43:44.033Z,95.63
2018-04-10T05:44:44.171Z,95.63
2018-04-10T05:45:44.310Z,95.63
2018-04-10T05:46:44.457Z,101.25
2018-04-10T05:47:44.605Z,101.25
2018-04-10T05:48:44.744Z,101.25
2018-04-10T05:49:44.878Z,101.25
2018-04-10T05:50:45.016Z,101.25
2018-04-10T05:51:45.163Z,106.88
2018-04-10T05:52:45.325Z,106.88
2018-04-10T05:53:45.466Z,112.50
2018-04-10T05:54:45.604Z,112.50
2018-04-10T05:55:45.770Z,112.50
2018-04-10T05:56:45.906Z,118.13
2018-04-10T05:57:46.041Z,118.13
2018-04-10T05:58:46.228Z,123.75
2018-04-10T05:59:46.321Z,129.38
2018-04-10T06:00:46.457Z,140.63
2018-04-10T06:01:46.595Z,140.63
2018-04-10T06:02:46.737Z,140.63
2018-04-10T06:03:46.888Z,140.63
2018-04-10T06:04:47.543Z,135.00
2018-04-10T06:05:47.223Z,135.00
2018-04-10T06:06:47.382Z,140.63
2018-04-10T06:07:47.526Z,140.63
2018-04-10T06:08:47.663Z,146.25
2018-04-10T06:09:47.801Z,146.25
2018-04-10T06:10:47.950Z,151.88
2018-04-10T06:11:48.061Z,151.88
2018-04-10T06:12:48.211Z,157.50
2018-04-10T06:13:48.346Z,157.50
2018-04-10T06:14:48.556Z,163.13
2018-04-10T06:15:48.680Z,163.13
2018-04-10T06:16:48.804Z,168.75
2018-04-10T06:17:48.942Z,168.75
2018-04-10T06:18:49.094Z,174.38
2018-04-10T06:19:49.237Z,180.00
2018-04-10T06:20:49.373Z,180.00
2018-04-10T06:21:49.517Z,180.00
2018-04-10T06:22:49.674Z,185.63
2018-04-10T06:23:49.815Z,185.63
2018-04-10T06:24:49.958Z,191.25
2018-04-10T06:25:50.094Z,191.25
2018-04-10T06:26:50.239Z,191.25
2018-04-10T06:27:50.371Z,196.88
2018-04-10T06:28:50.509Z,196.88
2018-04-10T06:29:50.646Z,196.88
2018-04-10T06:30:50.806Z,202.50
2018-04-10T06:31:50.945Z,202.50
2018-04-10T06:32:51.081Z,202.50
2018-04-10T06:33:51.224Z,202.50
2018-04-10T06:34:52.063Z,202.50
2018-04-10T06:35:51.559Z,202.50
2018-04-10T06:36:51.702Z,202.50
2018-04-10T06:37:51.840Z,202.50
2018-04-10T06:38:51.981Z,202.50
2018-04-10T06:39:52.122Z,196.88
2018-04-10T06:40:52.257Z,196.88
2018-04-10T06:41:52.398Z,196.88
2018-04-10T06:42:52.541Z,191.25
2018-04-10T06:43:52.682Z,191.25
2018-04-10T06:44:52.820Z,191.25
2018-04-10T06:45:52.956Z,185.63
2018-04-10T06:46:53.100Z,185.63
2018-04-10T06:47:53.239Z,180.00
2018-04-10T06:48:53.385Z,180.00
2018-04-10T06:49:53.520Z,180.00
2018-04-10T06:50:53.657Z,180.00
2018-04-10T06:51:53.795Z,174.38
2018-04-10T06:52:53.942Z,174.38
2018-04-10T06:53:54.072Z,174.38
2018-04-10T06:54:54.211Z,174.38
2018-04-10T06:55:54.352Z,174.38
2018-04-10T06:56:54.491Z,174.38
2018-04-10T06:57:54.634Z,174.38
2018-04-10T06:58:54.778Z,174.38
2018-04-10T06:59:54.912Z,174.38
2018-04-10T07:00:55.049Z,174.38
2018-04-10T07:01:55.188Z,174.38
2018-04-10T07:02:55.325Z,174.38
2018-04-10T07:03:55.470Z,174.38
2018-04-10T07:04:55.608Z,174.38
2018-04-10T07:05:55.740Z,174.38
2018-04-10T07:06:55.879Z,174.38
2018-04-10T07:07:56.060Z,174.38
2018-04-10T07:08:56.163Z,174.38
2018-04-10T07:09:56.306Z,174.38
2018-04-10T07:10:56.444Z,174.38
2018-04-10T07:11:56.584Z,180.00
2018-04-10T07:12:56.713Z,174.38
2018-04-10T07:13:56.875Z,174.38
2018-04-10T07:14:57.012Z,174.38
2018-04-10T07:15:57.156Z,180.00
2018-04-10T07:16:57.293Z,180.00
2018-04-10T07:17:57.457Z,180.00
2018-04-10T07:18:57.633Z,180.00
2018-04-10T07:19:57.773Z,180.00
2018-04-10T07:20:57.915Z,180.00
2018-04-10T07:21:58.073Z,180.00
2018-04-10T07:22:58.205Z,180.00
2018-04-10T07:23:58.340Z,180.00
2018-04-10T07:24:58.485Z,180.00
2018-04-10T07:25:58.656Z,180.00
2018-04-10T07:26:58.793Z,180.00
2018-04-10T07:27:58.936Z,185.63
2018-04-10T07:28:59.075Z,185.63
2018-04-10T07:29:59.222Z,185.63
2018-04-10T07:30:59.367Z,185.63
2018-04-10T07:31:59.511Z,185.63
2018-04-10T07:32:59.655Z,185.63
2018-04-10T07:33:59.830Z,185.63
2018-04-10T07:34:59.936Z,185.63
2018-04-10T07:36:00.068Z,191.25
2018-04-10T07:37:00.206Z,191.25
2018-04-10T07:38:00.375Z,191.25
2018-04-10T07:39:00.497Z,191.25
2018-04-10T07:40:00.638Z,191.25
2018-04-10T07:41:00.780Z,191.25
2018-04-10T07:42:00.950Z,191.25
2018-04-10T07:43:01.062Z,191.25
2018-04-10T07:44:01.214Z,196.88
2018-04-10T07:45:01.356Z,196.88
2018-04-10T07:46:01.531Z,196.88
2018-04-10T07:47:01.666Z,196.88
2018-04-10T07:48:01.806Z,196.88
2018-04-10T07:49:01.969Z,196.88
2018-04-10T07:50:02.103Z,202.50
2018-04-10T07:51:02.239Z,202.50
2018-04-10T07:52:02.377Z,202.50
2018-04-10T07:53:02.555Z,202.50
2018-04-10T07:54:02.672Z,202.50
2018-04-10T07:55:02.811Z,202.50
2018-04-10T07:56:02.948Z,202.50
2018-04-10T07:57:03.109Z,202.50
2018-04-10T07:58:03.256Z,202.50
2018-04-10T07:59:03.391Z,213.75
2018-04-10T08:00:03.536Z,208.13
2018-04-10T08:01:03.690Z,208.13
2018-04-10T08:02:03.826Z,208.13
2018-04-10T08:03:03.978Z,208.13
2018-04-10T08:04:04.120Z,208.13
2018-04-10T08:05:04.310Z,208.13
2018-04-10T08:06:04.432Z,213.75
2018-04-10T08:07:04.569Z,213.75
2018-04-10T08:08:04.707Z,213.75
2018-04-10T08:09:04.856Z,213.75
2018-04-10T08:10:04.991Z,213.75
2018-04-10T08:11:05.133Z,219.38
2018-04-10T08:12:05.275Z,219.38
2018-04-10T08:13:05.421Z,219.38
2018-04-10T08:14:05.554Z,225.00
2018-04-10T08:15:05.700Z,225.00
2018-04-10T08:16:05.840Z,225.00
2018-04-10T08:17:06.005Z,225.00
2018-04-10T08:18:06.142Z,225.00
2018-04-10T08:19:06.279Z,230.63
2018-04-10T08:20:06.424Z,230.63
2018-04-10T08:21:06.577Z,230.63
2018-04-10T08:22:06.732Z,230.63
2018-04-10T08:23:06.873Z,230.63
2018-04-10T08:24:07.016Z,236.25
2018-04-10T08:25:07.197Z,236.25
2018-04-10T08:26:07.295Z,236.25
2018-04-10T08:27:07.434Z,241.88
2018-04-10T08:28:07.575Z,241.88
2018-04-10T08:29:07.716Z,241.88
2018-04-10T08:30:07.858Z,241.88
2018-04-10T08:31:07.994Z,247.50
2018-04-10T08:32:08.134Z,247.50
2018-04-10T08:33:08.271Z,247.50
2018-04-10T08:34:08.412Z,247.50
2018-04-10T08:35:08.557Z,253.13
2018-04-10T08:36:08.705Z,253.13
2018-04-10T08:37:08.849Z,253.13
2018-04-10T08:38:08.992Z,253.13
2018-04-10T08:39:09.129Z,258.75
2018-04-10T08:40:09.269Z,258.75
2018-04-10T08:41:09.406Z,258.75
2018-04-10T08:42:09.545Z,258.75
2018-04-10T08:43:09.689Z,264.38
2018-04-10T08:44:09.833Z,264.38
2018-04-10T08:45:09.969Z,264.38
2018-04-10T08:46:10.113Z,270.00
2018-04-10T08:47:10.250Z,270.00
2018-04-10T08:48:10.388Z,270.00
2018-04-10T08:49:10.538Z,275.63
2018-04-10T08:50:10.674Z,275.63
2018-04-10T08:51:10.821Z,275.63
2018-04-10T08:52:10.957Z,275.63
2018-04-10T08:53:11.097Z,275.63
2018-04-10T08:54:11.251Z,275.63
2018-04-10T08:55:11.391Z,281.25
2018-04-10T08:56:11.536Z,281.25
2018-04-10T08:57:11.719Z,286.88
2018-04-10T08:58:11.856Z,286.88
2018-04-10T08:59:12.006Z,286.88
2018-04-10T09:00:12.151Z,292.50
2018-04-10T09:01:12.287Z,292.50
2018-04-10T09:02:12.447Z,292.50
2018-04-10T09:03:12.571Z,298.13
2018-04-10T09:04:12.715Z,292.50
2018-04-10T09:05:12.864Z,298.13
2018-04-10T09:06:13.086Z,298.13
2018-04-10T09:07:13.099Z,298.13
2018-04-10T09:08:13.241Z,298.13
2018-04-10T09:09:13.382Z,298.13
2018-04-10T09:10:13.544Z,298.13
2018-04-10T09:11:13.690Z,303.75
2018-04-10T09:12:13.825Z,303.75
2018-04-10T09:13:13.965Z,303.75
2018-04-10T09:14:14.120Z,303.75
2018-04-10T09:15:14.253Z,309.38
2018-04-10T09:16:14.395Z,309.38
2018-04-10T09:17:14.536Z,315.00
2018-04-10T09:18:14.684Z,315.00
2018-04-10T09:19:14.830Z,315.00
2018-04-10T09:20:14.962Z,320.63
2018-04-10T09:21:15.101Z,320.63
2018-04-10T09:22:15.248Z,326.25
2018-04-10T09:23:15.382Z,326.25
2018-04-10T09:24:15.527Z,331.88
2018-04-10T09:25:15.691Z,331.88
2018-04-10T09:26:15.839Z,337.50
2018-04-10T09:27:15.977Z,337.50
2018-04-10T09:28:16.170Z,343.13
2018-04-10T09:29:16.275Z,343.13
2018-04-10T09:30:16.415Z,343.13
2018-04-10T09:31:16.559Z,348.75
2018-04-10T09:32:16.729Z,348.75
2018-04-10T09:33:16.872Z,360.00
2018-04-10T09:34:17.027Z,360.00
2018-04-10T09:35:17.171Z,360.00
2018-04-10T09:36:17.314Z,365.63
2018-04-10T09:37:17.462Z,365.63
2018-04-10T09:38:17.607Z,365.63
2018-04-10T09:39:17.739Z,371.25
2018-04-10T09:40:17.916Z,371.25
2018-04-10T09:41:18.043Z,376.88
2018-04-10T09:42:18.190Z,376.88
2018-04-10T09:43:18.330Z,382.50
2018-04-10T09:44:18.490Z,382.50
2018-04-10T09:45:18.620Z,388.13
2018-04-10T09:46:18.762Z,388.13
2018-04-10T09:47:18.902Z,388.13
2018-04-10T09:48:19.050Z,388.13
2018-04-10T09:49:19.188Z,393.75
2018-04-10T09:50:19.325Z,399.38
2018-04-10T09:51:19.479Z,405.00
2018-04-10T09:52:19.626Z,405.00
2018-04-10T09:53:19.761Z,410.63
2018-04-10T09:54:19.904Z,416.25
2018-04-10T09:55:20.051Z,421.88
2018-04-10T09:56:20.192Z,427.50
2018-04-10T09:57:20.334Z,427.50
2018-04-10T09:58:20.478Z,410.63
2018-04-10T09:59:20.621Z,438.75
2018-04-10T10:00:20.765Z,444.38
2018-04-10T10:01:20.905Z,444.38
2018-04-10T10:02:21.056Z,444.38
2018-04-10T10:03:21.202Z,444.38
2018-04-10T10:04:21.347Z,455.63
2018-04-10T10:05:21.493Z,455.63
2018-04-10T10:06:21.647Z,461.25
2018-04-10T10:07:21.787Z,461.25
2018-04-10T10:08:21.931Z,466.88
2018-04-10T10:09:22.083Z,466.88
2018-04-10T10:10:22.224Z,472.50
2018-04-10T10:11:22.367Z,472.50
2018-04-10T10:12:22.512Z,478.13
2018-04-10T10:13:22.654Z,483.75
2018-04-10T10:14:22.799Z,483.75
2018-04-10T10:15:22.943Z,483.75
2018-04-10T10:16:23.088Z,489.38
2018-04-10T10:17:23.230Z,489.38
2018-04-10T10:18:23.375Z,495.00
2018-04-10T10:19:23.513Z,500.63
2018-04-10T10:20:23.663Z,506.25
2018-04-10T10:21:23.808Z,500.63
2018-04-10T10:22:23.948Z,506.25
2018-04-10T10:23:24.092Z,511.88
2018-04-10T10:24:24.239Z,511.88
2018-04-10T10:25:24.395Z,517.50
2018-04-10T10:26:24.531Z,517.50
2018-04-10T10:27:24.674Z,517.50
2018-04-10T10:28:24.815Z,517.50
2018-04-10T10:29:24.993Z,523.13
2018-04-10T10:30:25.134Z,523.13
2018-04-10T10:31:25.281Z,528.75
2018-04-10T10:32:25.431Z,534.38
2018-04-10T10:33:25.602Z,540.00
2018-04-10T10:34:25.739Z,540.00
2018-04-10T10:35:25.881Z,545.63
2018-04-10T10:36:26.020Z,551.25
2018-04-10T10:37:26.200Z,551.25
2018-04-10T10:38:26.302Z,556.88
2018-04-10T10:39:26.451Z,562.50
2018-04-10T10:40:26.589Z,568.13
2018-04-10T10:41:26.738Z,573.75
2018-04-10T10:42:26.882Z,579.38
2018-04-10T10:43:27.024Z,585.00
2018-04-10T10:44:27.222Z,590.63
2018-04-10T10:45:27.356Z,607.50
2018-04-10T10:46:27.499Z,765.00
2018-04-10T10:47:27.645Z,1361.25
2018-04-10T10:48:27.801Z,2030.63
2018-04-10T10:49:27.953Z,2098.13
2018-04-10T10:50:28.090Z,1271.25
2018-04-10T10:51:28.236Z,1203.75
2018-04-10T10:52:28.382Z,2053.13
2018-04-10T10:53:28.525Z,2266.88
2018-04-10T10:54:28.680Z,2896.88
2018-04-10T10:55:28.831Z,3037.50
2018-04-10T10:56:28.971Z,2953.13
2018-04-10T10:57:29.119Z,2694.38
2018-04-10T10:58:29.261Z,2610.00
2018-04-10T10:59:29.412Z,2941.88
2018-04-10T11:00:29.560Z,3099.38
2018-04-10T11:01:29.706Z,2930.63
2018-04-10T11:02:29.869Z,2992.50
2018-04-10T11:03:30.011Z,3324.38
2018-04-10T11:04:30.173Z,3363.75
2018-04-10T11:05:30.316Z,3448.13
2018-04-10T11:06:30.478Z,3020.63
2018-04-10T11:07:30.615Z,2919.38
2018-04-10T11:08:30.791Z,2716.88
2018-04-10T11:09:30.931Z,2643.75
2018-04-10T11:10:31.078Z,2818.13
2018-04-10T11:11:31.232Z,3510.00
2018-04-10T11:12:31.418Z,3448.13
2018-04-10T11:13:31.562Z,2986.88
2018-04-10T11:14:31.716Z,3076.88
2018-04-10T11:15:31.899Z,2745.00
2018-04-10T11:16:32.044Z,2733.75
2018-04-10T11:17:32.206Z,3301.88
2018-04-10T11:18:32.356Z,3223.13
2018-04-10T11:19:32.532Z,3009.38
2018-04-10T11:20:32.685Z,3105.00
2018-04-10T11:21:32.831Z,3549.38
2018-04-10T11:22:33.006Z,3796.88
2018-04-10T11:23:33.153Z,3459.38
2018-04-10T11:24:33.394Z,3318.75
2018-04-10T11:25:33.452Z,3616.88
2018-04-10T11:26:33.602Z,3487.50
2018-04-10T11:27:33.791Z,3549.38
2018-04-10T11:28:33.947Z,3487.50
2018-04-10T11:29:34.105Z,3403.13
2018-04-10T11:30:34.255Z,3245.63
2018-04-10T11:31:34.422Z,3577.50
2018-04-10T11:34:06.519Z,3397.50
2018-04-10T11:35:06.645Z,3414.38
2018-04-10T11:36:06.803Z,3616.88
2018-04-10T11:37:06.959Z,3538.13
2018-04-10T11:38:07.111Z,3583.13
2018-04-10T11:39:07.320Z,3504.38
2018-04-10T11:40:07.430Z,3605.63
2018-04-10T11:41:07.586Z,3633.75
2018-04-10T11:42:07.744Z,3667.50
2018-04-10T11:43:07.898Z,3538.13
2018-04-10T11:44:08.062Z,3251.25
2018-04-10T11:45:08.219Z,2913.75
2018-04-10T11:46:08.371Z,3105.00
2018-04-10T11:47:08.528Z,3279.38
2018-04-10T11:48:08.692Z,3600.00
2018-04-10T11:49:08.854Z,3695.63
2018-04-10T11:50:09.015Z,3487.50
2018-04-10T11:51:09.173Z,3105.00
2018-04-10T11:52:09.329Z,3015.00
2018-04-10T11:53:09.482Z,2778.75
2018-04-10T11:54:09.640Z,2542.50
2018-04-10T11:55:09.797Z,2390.63
2018-04-10T11:56:09.958Z,3172.50
2018-04-10T11:57:10.132Z,3746.25
2018-04-10T11:58:10.282Z,3841.88
2018-04-10T11:59:10.462Z,3971.25
2018-04-10T12:00:10.634Z,3830.63
2018-04-10T12:01:10.780Z,3785.63
2018-04-10T12:02:10.933Z,3858.75
2018-04-10T12:03:11.116Z,3920.63
2018-04-10T12:04:11.279Z,3746.25
2018-04-10T12:05:11.442Z,3740.63
2018-04-10T12:06:11.599Z,3706.88
2018-04-10T12:07:11.777Z,3926.25
2018-04-10T12:08:11.935Z,3791.25
2018-04-10T12:09:12.090Z,3611.25
2018-04-10T12:10:12.269Z,3526.88
2018-04-10T12:11:12.410Z,3639.38
2018-04-10T12:12:12.566Z,3605.63
2018-04-10T12:13:12.731Z,3566.25
2018-04-10T12:14:12.925Z,3560.63
2018-04-10T12:15:13.060Z,3549.38
2018-04-10T12:16:13.224Z,3391.88
2018-04-10T12:17:13.382Z,3330.00
2018-04-10T12:18:13.550Z,3346.88
2018-04-10T12:19:13.701Z,3330.00
2018-04-10T12:20:13.868Z,2975.63
2018-04-10T12:21:14.028Z,2964.38
2018-04-10T12:22:14.192Z,3099.38
2018-04-10T12:23:14.349Z,3448.13
2018-04-10T12:24:14.546Z,3279.38
2018-04-10T12:25:14.769Z,3431.25
2018-04-10T12:26:14.853Z,3324.38
2018-04-10T12:27:15.013Z,3448.13
2018-04-10T12:28:15.171Z,3459.38
2018-04-10T12:29:15.362Z,3470.63
2018-04-10T12:30:15.516Z,3504.38
2018-04-10T12:31:15.679Z,3498.75
2018-04-10T12:32:15.839Z,3481.88
2018-04-10T12:33:16.049Z,3498.75
2018-04-10T12:34:16.171Z,3420.00
2018-04-10T12:35:16.331Z,3335.63
2018-04-10T12:36:16.494Z,3481.88
2018-04-10T12:37:16.682Z,3481.88
2018-04-10T12:38:16.834Z,3493.13
2018-04-10T12:39:17.003Z,3611.25
2018-04-10T12:40:17.166Z,3515.63
2018-04-10T12:41:17.330Z,3515.63
2018-04-10T12:42:17.472Z,3571.88
2018-04-10T12:43:17.632Z,3487.50
2018-04-10T12:44:17.793Z,3448.13
2018-04-10T12:45:17.969Z,3504.38
2018-04-10T12:46:18.127Z,3476.25
2018-04-10T12:47:18.293Z,3470.63
2018-04-10T12:48:18.451Z,3431.25